createdAt,value
2023-05-08T00:01:10.905Z,4.32
2023-05-08T00:03:39.549Z,4.30
2023-05-08T00:06:09.057Z,4.28
2023-05-08T00:08:37.897Z,4.24
2023-05-08T00:11:06.418Z,4.21
2023-05-08T00:13:34.865Z,4.19
2023-05-08T00:16:03.620Z,4.15
2023-05-08T00:18:32.330Z,4.12
2023-05-08T00:21:00.738Z,4.10
2023-05-08T00:23:31.006Z,4.07
2023-05-08T00:25:59.461Z,4.07
2023-05-08T00:28:28.168Z,4.05
2023-05-08T00:30:56.712Z,4.04
2023-05-08T00:33:25.350Z,4.02
2023-05-08T00:35:59.408Z,4.00
2023-05-08T00:38:26.991Z,3.98
2023-05-08T00:40:55.560Z,3.96
2023-05-08T00:43:27.489Z,3.94
2023-05-08T00:45:59.588Z,3.91
2023-05-08T00:48:30.298Z,3.88
2023-05-08T00:50:59.048Z,3.85
2023-05-08T00:53:28.198Z,3.82
2023-05-08T00:55:57.146Z,3.80
2023-05-08T00:58:27.396Z,3.79
2023-05-08T01:00:56.805Z,3.77
2023-05-08T01:03:26.306Z,3.76
2023-05-08T01:05:58.240Z,3.74
2023-05-08T01:08:26.876Z,3.73
2023-05-08T01:11:04.481Z,3.71
2023-05-08T01:13:42.769Z,3.70
2023-05-08T01:16:16.139Z,3.69
2023-05-08T01:18:51.229Z,3.68
2023-05-08T01:21:27.948Z,3.67
2023-05-08T01:24:24.379Z,3.66
2023-05-08T01:27:16.760Z,3.64
2023-05-08T01:30:16.436Z,3.62
2023-05-08T01:32:48.485Z,3.59
2023-05-08T01:35:24.164Z,3.57
2023-05-08T01:37:59.690Z,3.55
2023-05-08T01:40:35.263Z,3.53
2023-05-08T01:43:14.576Z,3.51
2023-05-08T01:45:48.496Z,3.51
2023-05-08T01:48:22.931Z,3.49
2023-05-08T01:50:57.085Z,3.47
2023-05-08T01:53:29.155Z,3.46
2023-05-08T01:56:03.947Z,3.45
2023-05-08T01:58:33.957Z,3.43
2023-05-08T02:01:03.157Z,3.43
2023-05-08T02:03:32.199Z,3.42
2023-05-08T02:06:04.578Z,3.39
2023-05-08T02:08:34.703Z,3.37
2023-05-08T02:11:05.277Z,3.35
2023-05-08T02:13:34.518Z,3.34
2023-05-08T02:16:06.635Z,3.34
2023-05-08T02:18:36.570Z,3.34
2023-05-08T02:21:06.255Z,3.34
2023-05-08T02:23:35.981Z,3.34
2023-05-08T02:26:06.023Z,3.34
2023-05-08T02:28:35.748Z,3.34
2023-05-08T02:31:06.175Z,3.34
2023-05-08T02:33:35.390Z,3.34
2023-05-08T02:36:05.177Z,3.33
2023-05-08T02:38:35.885Z,3.32
2023-05-08T02:41:06.805Z,3.29
2023-05-08T02:43:36.111Z,3.29
2023-05-08T02:46:18.524Z,3.28
2023-05-08T02:48:57.153Z,3.27
2023-05-08T02:51:32.877Z,3.25
2023-05-08T02:54:08.278Z,3.23
2023-05-08T02:56:39.230Z,3.21
2023-05-08T02:59:17.144Z,3.20
2023-05-08T03:01:49.741Z,3.18
2023-05-08T03:04:26.060Z,3.16
2023-05-08T03:06:57.221Z,3.14
2023-05-08T03:09:32.149Z,3.12
2023-05-08T03:12:03.971Z,3.11
2023-05-08T03:14:35.661Z,3.11
2023-05-08T03:17:06.512Z,3.10
2023-05-08T03:19:37.734Z,3.09
2023-05-08T03:22:08.447Z,3.07
2023-05-08T03:24:38.619Z,3.08
2023-05-08T03:27:09.541Z,3.08
2023-05-08T03:29:39.254Z,3.07
2023-05-08T03:32:08.136Z,3.04
2023-05-08T03:34:37.317Z,2.99
2023-05-08T03:37:06.155Z,2.94
2023-05-08T03:39:35.078Z,2.91
2023-05-08T03:42:06.177Z,2.88
2023-05-08T03:44:35.088Z,2.87
2023-05-08T03:47:04.131Z,2.87
2023-05-08T03:49:34.177Z,2.90
2023-05-08T03:52:03.249Z,2.95
2023-05-08T03:54:31.632Z,3.01
2023-05-08T03:57:00.536Z,3.07
2023-05-08T03:59:36.270Z,3.15
2023-05-08T04:02:12.837Z,3.23
2023-05-08T04:04:42.289Z,3.31
2023-05-08T04:07:14.186Z,3.41
2023-05-08T04:09:49.992Z,3.51
2023-05-08T04:12:22.182Z,3.61
2023-05-08T04:14:56.573Z,3.74
2023-05-08T04:17:39.220Z,3.88
2023-05-08T04:20:13.857Z,4.02
2023-05-08T04:22:43.522Z,4.17
2023-05-08T04:25:13.672Z,4.31
2023-05-08T04:27:45.393Z,4.45
2023-05-08T04:30:15.299Z,4.58
2023-05-08T04:32:46.164Z,4.70
2023-05-08T04:35:16.070Z,4.84
2023-05-08T04:37:44.906Z,4.95
2023-05-08T04:40:14.156Z,5.08
2023-05-08T04:42:46.723Z,5.23
2023-05-08T04:45:16.890Z,5.37
2023-05-08T04:47:48.216Z,5.52
2023-05-08T04:50:17.137Z,5.68
2023-05-08T04:52:45.688Z,5.83
2023-05-08T04:55:14.566Z,5.94
2023-05-08T04:57:43.938Z,6.04
2023-05-08T05:00:15.412Z,6.17
2023-05-08T05:02:44.129Z,6.29
2023-05-08T05:05:15.586Z,6.41
2023-05-08T05:07:44.226Z,6.51
2023-05-08T05:10:12.749Z,6.62
2023-05-08T05:12:41.268Z,6.73
2023-05-08T05:15:11.375Z,6.85
2023-05-08T05:17:39.966Z,6.95
2023-05-08T05:20:12.743Z,7.01
2023-05-08T05:22:41.527Z,7.04
2023-05-08T05:25:12.731Z,7.11
2023-05-08T05:27:41.726Z,7.21
2023-05-08T05:30:12.101Z,7.34
2023-05-08T05:32:40.993Z,7.44
2023-05-08T05:35:10.877Z,7.49
2023-05-08T05:37:39.499Z,7.54
2023-05-08T05:40:12.777Z,7.57
2023-05-08T05:42:49.810Z,7.65
2023-05-08T05:45:18.490Z,7.74
2023-05-08T05:47:50.777Z,7.83
2023-05-08T05:50:21.045Z,7.90
2023-05-08T05:52:50.040Z,8.00
2023-05-08T05:55:18.644Z,8.12
2023-05-08T05:57:48.374Z,8.22
2023-05-08T06:00:21.168Z,8.29
2023-05-08T06:02:49.983Z,8.35
2023-05-08T06:05:19.073Z,8.40
2023-05-08T06:07:49.224Z,8.44
2023-05-08T06:10:18.096Z,8.48
2023-05-08T06:12:47.093Z,8.55
2023-05-08T06:15:15.778Z,8.61
2023-05-08T06:17:48.907Z,8.66
2023-05-08T06:20:18.473Z,8.73
2023-05-08T06:22:48.525Z,8.79
2023-05-08T06:25:17.333Z,8.85
2023-05-08T06:27:46.186Z,8.90
2023-05-08T06:30:15.814Z,8.95
2023-05-08T06:32:44.517Z,9.00
2023-05-08T06:35:15.029Z,9.07
2023-05-08T06:37:43.901Z,9.14
2023-05-08T06:40:14.389Z,9.21
2023-05-08T06:42:43.737Z,9.31
2023-05-08T06:45:13.133Z,9.39
2023-05-08T06:47:41.967Z,9.49
2023-05-08T06:50:12.404Z,9.59
2023-05-08T06:52:43.460Z,9.69
2023-05-08T06:55:12.270Z,9.76
2023-05-08T06:57:45.162Z,9.84
2023-05-08T07:00:15.809Z,9.92
2023-05-08T07:02:44.313Z,9.99
2023-05-08T07:05:20.203Z,10.08
2023-05-08T07:07:50.174Z,10.17
2023-05-08T07:10:22.998Z,10.26
2023-05-08T07:12:52.529Z,10.37
2023-05-08T07:15:26.345Z,10.46
2023-05-08T07:17:54.613Z,10.54
2023-05-08T07:20:24.626Z,10.62
2023-05-08T07:22:53.332Z,10.73
2023-05-08T07:25:28.541Z,10.82
2023-05-08T07:27:57.787Z,10.91
2023-05-08T07:30:29.074Z,10.99
2023-05-08T07:32:58.042Z,11.06
2023-05-08T07:35:28.948Z,11.14
2023-05-08T07:37:59.012Z,11.24
2023-05-08T07:40:27.779Z,11.35
2023-05-08T07:42:56.205Z,11.51
2023-05-08T07:45:25.373Z,11.68
2023-05-08T07:47:55.821Z,11.83
2023-05-08T07:50:26.006Z,11.98
2023-05-08T07:53:01.125Z,12.07
2023-05-08T07:55:30.840Z,12.15
2023-05-08T07:57:59.713Z,12.28
2023-05-08T08:00:29.196Z,12.39
2023-05-08T08:02:58.349Z,12.52
2023-05-08T08:05:27.061Z,12.64
2023-05-08T08:07:58.756Z,12.75
2023-05-08T08:10:28.495Z,12.89
2023-05-08T08:12:58.302Z,13.06
2023-05-08T08:15:31.812Z,13.21
2023-05-08T08:18:01.024Z,13.29
2023-05-08T08:20:29.975Z,13.42
2023-05-08T08:22:58.890Z,13.57
2023-05-08T08:25:34.712Z,13.70
2023-05-08T08:28:05.648Z,13.70
2023-05-08T08:30:34.155Z,13.73
2023-05-08T08:33:02.790Z,13.85
2023-05-08T08:35:32.369Z,13.97
2023-05-08T08:38:01.855Z,13.98
2023-05-08T08:40:30.958Z,13.99
2023-05-08T08:42:59.791Z,14.10
2023-05-08T08:45:29.494Z,14.28
2023-05-08T08:48:01.353Z,14.48
2023-05-08T08:50:32.567Z,14.68
2023-05-08T08:53:08.037Z,14.90
2023-05-08T08:55:40.462Z,15.17
2023-05-08T08:58:15.384Z,15.41
2023-05-08T09:00:46.889Z,15.62
2023-05-08T09:03:16.313Z,15.61
2023-05-08T09:05:48.618Z,15.59
2023-05-08T09:08:19.035Z,15.67
2023-05-08T09:10:47.599Z,15.73
2023-05-08T09:13:19.686Z,15.76
2023-05-08T09:15:49.815Z,15.81
2023-05-08T09:18:18.715Z,15.79
2023-05-08T09:20:47.199Z,15.89
2023-05-08T09:23:16.953Z,16.01
2023-05-08T09:25:47.760Z,15.99
2023-05-08T09:28:24.615Z,15.84
2023-05-08T09:30:55.061Z,15.78
2023-05-08T09:33:25.158Z,15.72
2023-05-08T09:35:55.316Z,15.63
2023-05-08T09:38:38.664Z,15.54
2023-05-08T09:41:08.681Z,15.45
2023-05-08T09:43:37.784Z,15.35
2023-05-08T09:46:22.932Z,15.30
2023-05-08T09:48:52.307Z,15.27
2023-05-08T09:51:21.286Z,15.32
2023-05-08T09:53:52.956Z,15.50
2023-05-08T09:56:38.781Z,15.67
2023-05-08T09:59:25.614Z,15.88
2023-05-08T10:01:54.114Z,16.15
2023-05-08T10:04:33.257Z,16.41
2023-05-08T10:07:02.158Z,16.68
2023-05-08T10:09:43.070Z,16.85
2023-05-08T10:12:21.462Z,17.07
2023-05-08T10:14:50.304Z,17.22
2023-05-08T10:17:24.667Z,17.15
2023-05-08T10:19:58.308Z,16.98
2023-05-08T10:22:27.551Z,16.81
2023-05-08T10:24:58.293Z,16.77
2023-05-08T10:27:44.486Z,16.84
2023-05-08T10:30:14.837Z,17.02
2023-05-08T10:32:45.400Z,17.22
2023-05-08T10:35:14.334Z,17.44
2023-05-08T10:37:45.732Z,17.69
2023-05-08T10:40:15.702Z,17.90
2023-05-08T10:42:44.788Z,18.07
2023-05-08T10:45:13.733Z,18.33
2023-05-08T10:47:48.823Z,18.55
2023-05-08T10:50:25.402Z,18.77
2023-05-08T10:53:01.643Z,19.01
2023-05-08T10:55:34.370Z,19.18
2023-05-08T10:58:29.536Z,19.22
2023-05-08T11:01:17.373Z,19.34
2023-05-08T11:03:54.479Z,19.41
2023-05-08T11:06:43.513Z,19.51
2023-05-08T11:09:20.711Z,19.52
2023-05-08T11:11:59.970Z,19.57
2023-05-08T11:14:34.406Z,19.55
2023-05-08T11:17:07.349Z,19.53
2023-05-08T11:19:36.913Z,19.64
2023-05-08T11:22:26.372Z,19.73
2023-05-08T11:24:57.191Z,19.68
2023-05-08T11:28:03.433Z,19.90
2023-05-08T11:30:39.317Z,20.22
2023-05-08T11:33:15.529Z,20.50
2023-05-08T11:35:52.909Z,20.69
2023-05-08T11:38:27.465Z,20.73
2023-05-08T11:40:59.060Z,20.73
2023-05-08T11:44:16.979Z,20.78
2023-05-08T11:46:50.241Z,20.80
2023-05-08T11:49:25.985Z,20.90
2023-05-08T11:52:00.013Z,21.03
2023-05-08T11:54:31.400Z,20.99
2023-05-08T11:57:01.290Z,20.70
2023-05-08T11:59:34.545Z,20.31
2023-05-08T12:04:45.582Z,19.76
2023-05-08T12:07:15.733Z,19.86
2023-05-08T12:09:44.291Z,20.28
2023-05-08T12:12:13.035Z,20.73
2023-05-08T12:14:41.679Z,21.26
2023-05-08T12:17:11.110Z,21.66
2023-05-08T12:19:40.057Z,21.95
2023-05-08T12:22:10.744Z,22.05
2023-05-08T12:24:40.181Z,22.04
2023-05-08T12:27:11.102Z,22.19
2023-05-08T12:29:44.613Z,22.16
2023-05-08T12:32:13.043Z,22.33
2023-05-08T12:34:42.806Z,22.73
2023-05-08T12:37:11.149Z,23.10
2023-05-08T12:39:44.976Z,23.35
2023-05-08T12:42:13.775Z,23.23
2023-05-08T12:44:51.175Z,23.03
2023-05-08T12:47:20.497Z,23.06
2023-05-08T12:49:52.546Z,23.22
2023-05-08T12:52:23.642Z,22.75
2023-05-08T12:54:52.068Z,22.41
2023-05-08T12:57:22.229Z,21.96
2023-05-08T12:59:51.201Z,21.36
2023-05-08T13:02:23.149Z,20.68
2023-05-08T13:04:55.392Z,20.27
2023-05-08T13:07:24.068Z,19.93
2023-05-08T13:10:01.622Z,19.77
2023-05-08T13:12:30.269Z,19.69
2023-05-08T13:14:59.039Z,19.83
2023-05-08T13:17:27.573Z,20.07
2023-05-08T13:19:56.126Z,20.44
2023-05-08T13:22:27.380Z,20.59
2023-05-08T13:24:56.173Z,20.36
2023-05-08T13:27:24.501Z,20.19
2023-05-08T13:29:53.126Z,20.02
2023-05-08T13:32:22.129Z,20.12
2023-05-08T13:34:52.811Z,20.29
2023-05-08T13:37:23.751Z,20.65
2023-05-08T13:39:52.320Z,21.05
2023-05-08T13:42:20.834Z,21.34
2023-05-08T13:44:49.497Z,21.57
2023-05-08T13:47:17.887Z,21.66
2023-05-08T13:49:46.810Z,21.94
2023-05-08T13:52:15.541Z,22.31
2023-05-08T13:54:44.176Z,22.91
2023-05-08T13:57:12.625Z,23.55
2023-05-08T13:59:41.603Z,24.00
2023-05-08T14:02:10.206Z,24.17
2023-05-08T14:04:38.933Z,24.20
2023-05-08T14:07:08.167Z,24.28
2023-05-08T14:09:37.944Z,24.25
2023-05-08T14:12:07.870Z,23.65
2023-05-08T14:14:36.808Z,22.85
2023-05-08T14:17:05.508Z,22.27
2023-05-08T14:19:34.013Z,21.97
2023-05-08T14:22:03.433Z,21.61
2023-05-08T14:24:32.252Z,21.41
2023-05-08T14:27:05.072Z,21.40
2023-05-08T14:29:33.619Z,21.44
2023-05-08T14:32:02.386Z,21.44
2023-05-08T14:34:30.894Z,21.40
2023-05-08T14:36:59.391Z,21.40
2023-05-08T14:39:27.969Z,21.48
2023-05-08T14:42:20.703Z,21.54
2023-05-08T14:44:45.139Z,21.58
2023-05-08T14:47:13.522Z,21.45
2023-05-08T14:49:42.606Z,21.09
2023-05-08T14:52:11.246Z,20.64
2023-05-08T14:54:40.559Z,20.46
2023-05-08T14:57:09.838Z,20.37
2023-05-08T14:59:49.017Z,20.25
2023-05-08T15:02:23.995Z,20.05
2023-05-08T15:04:53.276Z,19.77
2023-05-08T15:07:22.204Z,19.53
2023-05-08T15:09:52.681Z,19.18
2023-05-08T15:12:21.025Z,18.84
2023-05-08T15:14:49.406Z,18.53
2023-05-08T15:17:17.736Z,18.27
2023-05-08T15:19:46.150Z,18.14
2023-05-08T15:22:15.698Z,18.28
2023-05-08T15:24:44.186Z,18.49
2023-05-08T15:27:12.615Z,18.76
2023-05-08T15:29:41.022Z,18.94
2023-05-08T15:32:09.873Z,19.31
2023-05-08T15:34:40.522Z,19.73
2023-05-08T15:37:09.402Z,19.90
2023-05-08T15:39:38.194Z,19.72
2023-05-08T15:42:07.473Z,19.70
2023-05-08T15:44:54.093Z,19.95
2023-05-08T15:47:23.645Z,19.76
2023-05-08T15:49:52.200Z,19.81
2023-05-08T15:52:22.201Z,19.85
2023-05-08T15:54:51.006Z,20.02
2023-05-08T15:57:19.399Z,20.18
2023-05-08T15:59:48.011Z,20.23
2023-05-08T16:02:17.023Z,20.36
2023-05-08T16:04:45.758Z,20.53
2023-05-08T16:07:14.461Z,20.81
2023-05-08T16:09:45.192Z,20.80
2023-05-08T16:12:15.449Z,20.87
2023-05-08T16:14:44.285Z,20.96
2023-05-08T16:17:12.730Z,20.94
2023-05-08T16:19:41.165Z,21.01
2023-05-08T16:22:09.915Z,20.90
2023-05-08T16:24:40.204Z,20.74
2023-05-08T16:27:11.775Z,20.62
2023-05-08T16:29:40.219Z,20.44
2023-05-08T16:32:12.009Z,20.26
2023-05-08T16:34:41.202Z,20.16
2023-05-08T16:37:09.762Z,20.02
2023-05-08T16:39:39.001Z,19.79
2023-05-08T16:42:07.981Z,19.59
2023-05-08T16:44:38.481Z,19.18
2023-05-08T16:47:07.752Z,18.95
2023-05-08T16:49:36.752Z,18.84
2023-05-08T16:52:05.674Z,18.93
2023-05-08T16:54:34.598Z,18.86
2023-05-08T16:57:03.241Z,18.69
2023-05-08T16:59:32.368Z,18.48
2023-05-08T17:02:01.337Z,18.25
2023-05-08T17:04:32.328Z,17.93
2023-05-08T17:07:01.160Z,17.62
2023-05-08T17:09:29.542Z,17.36
2023-05-08T17:11:58.689Z,17.06
2023-05-08T17:14:28.367Z,16.80
2023-05-08T17:16:57.677Z,16.63
2023-05-08T17:19:26.129Z,16.48
2023-05-08T17:21:54.485Z,16.33
2023-05-08T17:24:23.981Z,16.20
2023-05-08T17:26:53.588Z,16.06
2023-05-08T17:29:22.161Z,15.97
2023-05-08T17:31:50.635Z,15.89
2023-05-08T17:34:19.657Z,15.80
2023-05-08T17:36:49.350Z,15.71
2023-05-08T17:39:20.550Z,15.62
2023-05-08T17:41:50.052Z,15.50
2023-05-08T17:44:18.947Z,15.41
2023-05-08T17:46:47.864Z,15.31
2023-05-08T17:49:18.611Z,15.19
2023-05-08T17:51:49.044Z,15.08
2023-05-08T17:54:17.606Z,14.98
2023-05-08T17:56:46.192Z,14.89
2023-05-08T17:59:15.097Z,14.80
2023-05-08T18:01:48.970Z,14.72
2023-05-08T18:04:17.441Z,14.64
2023-05-08T18:06:51.125Z,14.56
2023-05-08T18:09:20.428Z,14.47
2023-05-08T18:11:48.912Z,14.40
2023-05-08T18:14:17.388Z,14.32
2023-05-08T18:16:46.277Z,14.24
2023-05-08T18:19:15.122Z,14.15
2023-05-08T18:21:43.618Z,14.06
2023-05-08T18:24:12.604Z,13.96
2023-05-08T18:26:41.900Z,13.84
2023-05-08T18:29:10.486Z,13.75
2023-05-08T18:31:39.171Z,13.66
2023-05-08T18:34:07.724Z,13.57
2023-05-08T18:36:37.485Z,13.48
2023-05-08T18:39:05.992Z,13.39
2023-05-08T18:41:36.044Z,13.31
2023-05-08T18:44:05.350Z,13.20
2023-05-08T18:46:33.810Z,13.09
2023-05-08T18:49:02.427Z,13.00
2023-05-08T18:51:31.380Z,12.93
2023-05-08T18:54:00.190Z,12.86
2023-05-08T18:56:28.879Z,12.80
2023-05-08T18:58:59.582Z,12.72
2023-05-08T19:01:28.221Z,12.61
2023-05-08T19:03:57.360Z,12.52
2023-05-08T19:06:26.402Z,12.43
2023-05-08T19:08:55.392Z,12.35
2023-05-08T19:11:25.689Z,12.26
2023-05-08T19:13:56.165Z,12.17
2023-05-08T19:16:25.662Z,12.07
2023-05-08T19:18:55.270Z,11.97
2023-05-08T19:21:24.119Z,11.89
2023-05-08T19:23:53.782Z,11.83
2023-05-08T19:26:23.070Z,11.79
2023-05-08T19:28:55.113Z,11.75
2023-05-08T19:31:23.725Z,11.71
2023-05-08T19:33:52.127Z,11.67
2023-05-08T19:36:20.465Z,11.65
2023-05-08T19:38:50.442Z,11.61
2023-05-08T19:41:19.549Z,11.55
2023-05-08T19:43:48.555Z,11.48
2023-05-08T19:46:17.169Z,11.40
2023-05-08T19:48:46.626Z,11.32
2023-05-08T19:51:16.093Z,11.26
2023-05-08T19:53:46.456Z,11.19
2023-05-08T19:56:15.257Z,11.11
2023-05-08T19:58:46.138Z,11.03
2023-05-08T20:01:15.172Z,10.93
2023-05-08T20:03:43.848Z,10.84
2023-05-08T20:06:13.861Z,10.75
2023-05-08T20:08:43.657Z,10.66
2023-05-08T20:11:13.931Z,10.58
2023-05-08T20:13:43.013Z,10.50
2023-05-08T20:16:11.854Z,10.42
2023-05-08T20:18:40.739Z,10.34
2023-05-08T20:21:09.951Z,10.27
2023-05-08T20:23:39.695Z,10.21
2023-05-08T20:26:08.596Z,10.13
2023-05-08T20:28:38.954Z,10.06
2023-05-08T20:31:07.930Z,9.98
2023-05-08T20:33:37.091Z,9.91
2023-05-08T20:36:06.857Z,9.82
2023-05-08T20:38:36.265Z,9.74
2023-05-08T20:41:11.289Z,9.65
2023-05-08T20:43:40.855Z,9.56
2023-05-08T20:46:09.971Z,9.48
2023-05-08T20:48:39.198Z,9.40
2023-05-08T20:51:08.959Z,9.34
2023-05-08T20:53:38.453Z,9.26
2023-05-08T20:56:08.253Z,9.20
2023-05-08T20:58:37.874Z,9.13
2023-05-08T21:01:06.621Z,9.05
2023-05-08T21:03:35.507Z,8.98
2023-05-08T21:06:06.997Z,8.91
2023-05-08T21:08:35.561Z,8.84
2023-05-08T21:11:04.095Z,8.79
2023-05-08T21:13:34.455Z,8.72
2023-05-08T21:16:05.550Z,8.69
2023-05-08T21:18:36.389Z,8.63
2023-05-08T21:21:05.669Z,8.58
2023-05-08T21:23:34.652Z,8.54
2023-05-08T21:26:03.407Z,8.48
2023-05-08T21:28:31.944Z,8.43
2023-05-08T21:31:01.296Z,8.39
2023-05-08T21:33:29.997Z,8.33
2023-05-08T21:36:00.349Z,8.27
2023-05-08T21:38:30.108Z,8.24
2023-05-08T21:41:06.539Z,8.20
2023-05-08T21:43:35.441Z,8.16
2023-05-08T21:46:06.395Z,8.11
2023-05-08T21:48:35.250Z,8.08
2023-05-08T21:51:05.177Z,8.03
2023-05-08T21:53:34.220Z,7.99
2023-05-08T21:56:02.894Z,7.96
2023-05-08T21:58:31.511Z,7.92
2023-05-08T22:01:00.748Z,7.89
2023-05-08T22:03:30.305Z,7.85
2023-05-08T22:05:59.853Z,7.82
2023-05-08T22:08:28.889Z,7.77
2023-05-08T22:10:57.560Z,7.73
2023-05-08T22:13:26.030Z,7.69
2023-05-08T22:15:54.708Z,7.64
2023-05-08T22:18:26.062Z,7.60
2023-05-08T22:20:57.853Z,7.54
2023-05-08T22:23:26.382Z,7.47
2023-05-08T22:25:58.054Z,7.41
2023-05-08T22:28:31.912Z,7.34
2023-05-08T22:31:00.551Z,7.26
2023-05-08T22:33:33.398Z,7.19
2023-05-08T22:36:02.390Z,7.12
2023-05-08T22:38:32.055Z,7.06
2023-05-08T22:41:04.474Z,7.02
2023-05-08T22:43:34.173Z,6.97
2023-05-08T22:46:02.768Z,6.92
2023-05-08T22:48:32.263Z,6.88
2023-05-08T22:51:00.803Z,6.86
2023-05-08T22:53:31.888Z,6.83
2023-05-08T22:56:00.230Z,6.79
2023-05-08T22:58:29.980Z,6.75
2023-05-08T23:00:59.266Z,6.70
2023-05-08T23:03:28.137Z,6.65
2023-05-08T23:05:56.532Z,6.62
2023-05-08T23:08:25.090Z,6.57
2023-05-08T23:10:53.691Z,6.52
2023-05-08T23:13:22.401Z,6.49
2023-05-08T23:15:51.320Z,6.46
2023-05-08T23:18:20.733Z,6.42
2023-05-08T23:20:50.833Z,6.39
2023-05-08T23:23:19.666Z,6.36
2023-05-08T23:25:49.115Z,6.32
2023-05-08T23:28:17.746Z,6.28
2023-05-08T23:30:46.160Z,6.25
2023-05-08T23:33:17.098Z,6.22
2023-05-08T23:35:46.635Z,6.19
2023-05-08T23:38:15.507Z,6.16
2023-05-08T23:40:44.179Z,6.14
2023-05-08T23:43:12.815Z,6.12
2023-05-08T23:45:43.124Z,6.11
2023-05-08T23:48:11.627Z,6.08
2023-05-08T23:50:43.347Z,6.05
2023-05-08T23:53:13.008Z,6.02
2023-05-08T23:55:42.104Z,5.99
2023-05-08T23:58:10.726Z,5.97
